createdAt,value
2018-12-05T00:00:07.242Z,943.4
2018-12-05T00:01:07.572Z,943.5
2018-12-05T00:02:07.481Z,943.4
2018-12-05T00:03:07.375Z,943.4
2018-12-05T00:04:07.248Z,943.5
2018-12-05T00:05:07.120Z,943.4
2018-12-05T00:06:07.027Z,943.4
2018-12-05T00:07:06.898Z,943.5
2018-12-05T00:08:06.783Z,943.5
2018-12-05T00:09:06.674Z,943.5
2018-12-05T00:10:06.627Z,943.6
2018-12-05T00:11:06.928Z,943.5
2018-12-05T00:12:06.829Z,943.5
2018-12-05T00:13:06.699Z,943.5
2018-12-05T00:14:06.578Z,943.4
2018-12-05T00:15:06.465Z,943.5
2018-12-05T00:16:06.338Z,943.6
2018-12-05T00:17:06.248Z,943.5
2018-12-05T00:18:06.145Z,943.6
2018-12-05T00:19:06.038Z,943.6
2018-12-05T00:20:05.936Z,943.6
2018-12-05T00:21:06.234Z,943.6
2018-12-05T00:22:06.122Z,943.6
2018-12-05T00:23:06.019Z,943.6
2018-12-05T00:24:05.914Z,943.5
2018-12-05T00:25:05.805Z,943.5
2018-12-05T00:26:05.709Z,943.5
2018-12-05T00:27:05.585Z,943.5
2018-12-05T00:28:05.487Z,943.5
2018-12-05T00:29:05.385Z,943.5
2018-12-05T00:30:05.297Z,943.6
2018-12-05T00:31:05.596Z,943.6
2018-12-05T00:32:05.479Z,943.4
2018-12-05T00:33:05.366Z,943.5
2018-12-05T00:34:05.230Z,943.5
2018-12-05T00:35:05.126Z,943.5
2018-12-05T00:36:05.097Z,943.2
2018-12-05T00:37:04.972Z,943.4
2018-12-05T00:38:04.929Z,943.4
2018-12-05T00:39:04.808Z,943.3
2018-12-05T00:40:04.719Z,943.2
2018-12-05T00:41:05.106Z,943.4
2018-12-05T00:42:05.002Z,943.2
2018-12-05T00:43:04.911Z,943.2
2018-12-05T00:44:04.788Z,943.3
2018-12-05T00:45:04.678Z,943.2
2018-12-05T00:46:04.574Z,943.2
2018-12-05T00:47:04.475Z,943.2
2018-12-05T00:48:04.394Z,943.2
2018-12-05T00:49:04.265Z,943.1
2018-12-05T00:50:04.152Z,943.3
2018-12-05T00:51:04.443Z,943.2
2018-12-05T00:52:04.320Z,943.3
2018-12-05T00:53:04.214Z,943.2
2018-12-05T00:54:04.093Z,943.1
2018-12-05T00:55:03.978Z,943.2
2018-12-05T00:56:03.866Z,943.2
2018-12-05T00:57:03.749Z,943.2
2018-12-05T00:58:03.644Z,943.2
2018-12-05T00:59:03.529Z,943.1
2018-12-05T01:00:03.451Z,943.2
2018-12-05T01:01:03.751Z,943.2
2018-12-05T01:02:03.618Z,943.2
2018-12-05T01:03:03.520Z,943.2
2018-12-05T01:04:03.426Z,943.1
2018-12-05T01:05:03.322Z,943.2
2018-12-05T01:06:03.202Z,943.2
2018-12-05T01:07:03.078Z,943.1
2018-12-05T01:08:02.984Z,943.2
2018-12-05T01:09:02.862Z,943.2
2018-12-05T01:10:02.796Z,943.2
2018-12-05T01:11:03.184Z,943
2018-12-05T01:12:03.064Z,943.1
2018-12-05T01:13:02.953Z,943.1
2018-12-05T01:14:02.821Z,943
2018-12-05T01:15:02.703Z,942.2
2018-12-05T01:16:02.578Z,943.1
2018-12-05T01:17:02.457Z,943
2018-12-05T01:18:02.346Z,943
2018-12-05T01:19:02.217Z,942.1
2018-12-05T01:20:02.122Z,942.9
2018-12-05T01:21:02.426Z,942.8
2018-12-05T01:22:02.307Z,943
2018-12-05T01:23:02.206Z,943
2018-12-05T01:24:02.101Z,943
2018-12-05T01:25:02.021Z,943
2018-12-05T01:26:01.906Z,943
2018-12-05T01:27:01.791Z,943
2018-12-05T01:28:01.694Z,943
2018-12-05T01:29:01.574Z,943.1
2018-12-05T01:30:01.453Z,943
2018-12-05T01:31:01.790Z,942.4
2018-12-05T01:32:01.695Z,941.4
2018-12-05T01:33:01.599Z,942.2
2018-12-05T01:34:01.476Z,943
2018-12-05T01:35:01.359Z,943
2018-12-05T01:36:01.243Z,943
2018-12-05T01:37:01.118Z,942.3
2018-12-05T01:38:01.004Z,942.8
2018-12-05T01:39:00.891Z,942.9
2018-12-05T01:40:00.767Z,942.9
2018-12-05T01:41:01.065Z,942.9
2018-12-05T01:42:01.043Z,941.8
2018-12-05T01:43:00.952Z,942.8
2018-12-05T01:44:00.846Z,942.9
2018-12-05T01:45:00.727Z,942.9
2018-12-05T01:46:00.624Z,942.9
2018-12-05T01:47:00.517Z,943
2018-12-05T01:48:00.401Z,943
2018-12-05T01:49:00.269Z,942.2
2018-12-05T01:50:00.147Z,942.9
2018-12-05T01:51:00.483Z,942.8
2018-12-05T01:52:00.363Z,943.1
2018-12-05T01:53:00.275Z,943
2018-12-05T01:54:00.137Z,943.1
2018-12-05T01:55:00.019Z,943
2018-12-05T01:55:59.883Z,942.9
2018-12-05T01:56:59.751Z,943.1
2018-12-05T01:57:59.663Z,943.2
2018-12-05T01:58:59.553Z,943
2018-12-05T01:59:59.435Z,943
2018-12-05T02:00:59.737Z,943
2018-12-05T02:01:59.627Z,942.9
2018-12-05T02:02:59.521Z,943
2018-12-05T02:03:59.402Z,943
2018-12-05T02:04:59.274Z,943
2018-12-05T02:05:59.157Z,941.9
2018-12-05T02:06:59.036Z,943
2018-12-05T02:07:58.938Z,943
2018-12-05T02:08:58.839Z,943
2018-12-05T02:09:58.727Z,943.1
2018-12-05T02:10:59.052Z,943.1
2018-12-05T02:11:58.978Z,943
2018-12-05T02:12:58.864Z,943.1
2018-12-05T02:13:58.749Z,943.2
2018-12-05T02:14:58.628Z,943.1
2018-12-05T02:15:58.520Z,943.1
2018-12-05T02:16:58.406Z,943.1
2018-12-05T02:17:58.346Z,943.1
2018-12-05T02:18:58.269Z,943.1
2018-12-05T02:19:58.147Z,943.2
2018-12-05T02:20:58.456Z,943.1
2018-12-05T02:21:58.333Z,943
2018-12-05T02:22:58.218Z,943.1
2018-12-05T02:23:58.185Z,943.1
2018-12-05T02:24:58.103Z,943.1
2018-12-05T02:25:57.980Z,943.1
2018-12-05T02:26:57.871Z,942
2018-12-05T02:27:57.749Z,943
2018-12-05T02:28:57.621Z,943.1
2018-12-05T02:29:57.501Z,943.2
2018-12-05T02:30:57.845Z,943.2
2018-12-05T02:31:57.751Z,943.2
2018-12-05T02:32:57.642Z,943.3
2018-12-05T02:34:00.103Z,943.3
2018-12-05T02:34:59.988Z,943.4
2018-12-05T02:35:59.914Z,943.3
2018-12-05T02:36:59.823Z,943.5
2018-12-05T02:37:59.721Z,943.3
2018-12-05T02:38:59.622Z,943.3
2018-12-05T02:39:59.521Z,943.4
2018-12-05T02:40:59.840Z,943.3
2018-12-05T02:41:59.722Z,943.3
2018-12-05T02:42:59.624Z,943.2
2018-12-05T02:43:59.531Z,943.2
2018-12-05T02:44:59.430Z,943.2
2018-12-05T02:45:59.347Z,943.2
2018-12-05T02:46:59.219Z,943
2018-12-05T02:47:59.111Z,942.9
2018-12-05T02:48:58.994Z,943
2018-12-05T02:49:58.887Z,943
2018-12-05T02:50:59.190Z,942.9
2018-12-05T02:51:59.094Z,942.9
2018-12-05T02:52:58.980Z,942.8
2018-12-05T02:53:58.883Z,942.8
2018-12-05T02:54:58.763Z,942.8
2018-12-05T02:55:58.658Z,942.8
2018-12-05T02:56:58.538Z,942.8
2018-12-05T02:57:58.450Z,942.8
2018-12-05T02:58:58.341Z,942.9
2018-12-05T02:59:58.210Z,942.9
2018-12-05T03:00:58.523Z,943
2018-12-05T03:01:58.416Z,942.9
2018-12-05T03:02:58.370Z,943
2018-12-05T03:03:58.254Z,943
2018-12-05T03:04:58.162Z,943
2018-12-05T03:05:58.045Z,943
2018-12-05T03:06:57.928Z,943
2018-12-05T03:07:57.831Z,943
2018-12-05T03:08:57.744Z,943
2018-12-05T03:09:57.620Z,942.8
2018-12-05T03:10:57.939Z,942.9
2018-12-05T03:11:57.815Z,943
2018-12-05T03:12:57.715Z,943
2018-12-05T03:13:57.602Z,943
2018-12-05T03:14:57.489Z,943
2018-12-05T03:15:57.379Z,943
2018-12-05T03:16:57.254Z,942.8
2018-12-05T03:17:57.122Z,942.9
2018-12-05T03:18:57.037Z,942.9
2018-12-05T03:19:56.943Z,942.9
2018-12-05T03:20:57.302Z,941.6
2018-12-05T03:21:57.311Z,942
2018-12-05T03:22:57.217Z,943
2018-12-05T03:23:56.951Z,943
2018-12-05T03:24:56.701Z,942.9
2018-12-05T03:25:56.464Z,943
2018-12-05T03:26:56.193Z,942.8
2018-12-05T03:27:55.911Z,942.9
2018-12-05T03:28:55.647Z,942.9
2018-12-05T03:29:55.395Z,942.9
2018-12-05T03:30:55.627Z,941.6
2018-12-05T03:31:55.386Z,943
2018-12-05T03:32:55.155Z,943
2018-12-05T03:33:54.875Z,943
2018-12-05T03:34:54.606Z,943
2018-12-05T03:35:54.403Z,943
2018-12-05T03:36:54.122Z,942.9
2018-12-05T03:37:53.925Z,943
2018-12-05T03:38:53.663Z,943
2018-12-05T03:39:53.397Z,943
2018-12-05T03:40:53.709Z,943
2018-12-05T03:41:53.591Z,943
2018-12-05T03:42:53.496Z,942.9
2018-12-05T03:43:53.382Z,942.9
2018-12-05T03:44:53.278Z,943
2018-12-05T03:45:53.213Z,942.9
2018-12-05T03:46:53.100Z,943
2018-12-05T03:47:53.007Z,942.9
2018-12-05T03:48:52.918Z,942.9
2018-12-05T03:49:52.811Z,943
2018-12-05T03:50:53.112Z,943
2018-12-05T03:51:53.042Z,942.9
2018-12-05T03:52:52.929Z,942.8
2018-12-05T03:53:52.663Z,942.9
2018-12-05T03:54:52.388Z,942.8
2018-12-05T03:55:52.128Z,942.8
2018-12-05T03:56:52.022Z,942.8
2018-12-05T03:57:51.769Z,942.7
2018-12-05T03:58:51.488Z,942.7
2018-12-05T03:59:51.203Z,942.6
2018-12-05T04:00:51.526Z,942.6
2018-12-05T04:01:51.401Z,942.7
2018-12-05T04:02:51.306Z,942.7
2018-12-05T04:03:51.198Z,942.6
2018-12-05T04:04:51.074Z,942.7
2018-12-05T04:05:50.985Z,942.7
2018-12-05T04:06:50.865Z,942.6
2018-12-05T04:07:50.775Z,942.7
2018-12-05T04:08:50.666Z,942.7
2018-12-05T04:09:50.598Z,942.7
2018-12-05T04:10:51.006Z,942.7
2018-12-05T04:11:50.913Z,942.7
2018-12-05T04:12:50.806Z,942.7
2018-12-05T04:13:50.724Z,942.7
2018-12-05T04:14:50.621Z,942.7
2018-12-05T04:15:50.508Z,942.7
2018-12-05T04:16:50.380Z,942.7
2018-12-05T04:17:50.434Z,942.8
2018-12-05T04:18:50.357Z,942.8
2018-12-05T04:19:50.246Z,942.8
2018-12-05T04:20:50.557Z,942.8
2018-12-05T04:21:50.436Z,942.8
2018-12-05T04:22:50.363Z,942.9
2018-12-05T04:23:50.384Z,942.8
2018-12-05T04:24:50.280Z,942.8
2018-12-05T04:25:50.172Z,942.8
2018-12-05T04:26:50.137Z,942.9
2018-12-05T04:27:50.049Z,942.9
2018-12-05T04:28:49.985Z,942.9
2018-12-05T04:29:49.880Z,941.4
2018-12-05T04:30:50.175Z,942.9
2018-12-05T04:31:50.087Z,943
2018-12-05T04:32:49.972Z,943.1
2018-12-05T04:33:49.881Z,943
2018-12-05T04:34:49.768Z,943.1
2018-12-05T04:35:49.670Z,943
2018-12-05T04:36:49.565Z,943.1
2018-12-05T04:37:49.443Z,943
2018-12-05T04:38:49.340Z,942.9
2018-12-05T04:39:49.217Z,942.9
2018-12-05T04:40:49.526Z,942.9
2018-12-05T04:41:49.411Z,943.1
2018-12-05T04:42:49.299Z,943
2018-12-05T04:43:49.199Z,943.1
2018-12-05T04:44:49.114Z,943.2
2018-12-05T04:45:49.031Z,943.2
2018-12-05T04:46:48.908Z,943.1
2018-12-05T04:47:48.808Z,943.2
2018-12-05T04:48:48.733Z,943.2
2018-12-05T04:49:48.643Z,943.3
2018-12-05T04:50:48.989Z,943.1
2018-12-05T04:51:48.871Z,943.3
2018-12-05T04:52:48.752Z,943.2
2018-12-05T04:53:48.646Z,943.2
2018-12-05T04:54:48.610Z,943.1
2018-12-05T04:55:48.510Z,943.2
2018-12-05T04:56:48.402Z,943.2
2018-12-05T04:57:48.300Z,943.2
2018-12-05T04:58:48.201Z,943.2
2018-12-05T04:59:48.112Z,943.2
2018-12-05T05:00:48.455Z,943.2
2018-12-05T05:01:48.331Z,943
2018-12-05T05:02:48.218Z,943.1
2018-12-05T05:03:47.953Z,943
2018-12-05T05:04:47.679Z,943.2
2018-12-05T05:05:47.399Z,943.1
2018-12-05T05:06:52.609Z,943.2
2018-12-05T05:07:52.350Z,943.2
2018-12-05T05:08:52.096Z,943.2
2018-12-05T05:09:51.817Z,943.2
2018-12-05T05:10:52.143Z,943.2
2018-12-05T05:11:52.134Z,943.2
2018-12-05T05:12:52.018Z,942.6
2018-12-05T05:13:51.923Z,942.7
2018-12-05T05:14:51.813Z,943.2
2018-12-05T05:15:51.690Z,943.3
2018-12-05T05:16:51.570Z,943.3
2018-12-05T05:17:51.460Z,943.2
2018-12-05T05:18:51.367Z,943.3
2018-12-05T05:19:51.282Z,943.2
2018-12-05T05:20:51.619Z,943.3
2018-12-05T05:21:51.520Z,943.3
2018-12-05T05:22:51.417Z,943.2
2018-12-05T05:23:51.327Z,943.2
2018-12-05T05:24:51.217Z,943.3
2018-12-05T05:25:51.089Z,943.3
2018-12-05T05:26:50.969Z,943.1
2018-12-05T05:27:50.858Z,943.2
2018-12-05T05:28:50.736Z,943.2
2018-12-05T05:29:50.640Z,943.2
2018-12-05T05:30:50.951Z,943.3
2018-12-05T05:31:50.849Z,943.2
2018-12-05T05:32:50.737Z,943.3
2018-12-05T05:33:50.623Z,943.2
2018-12-05T05:34:50.539Z,943.1
2018-12-05T05:35:50.417Z,943.1
2018-12-05T05:36:50.304Z,943.2
2018-12-05T05:37:50.165Z,943.1
2018-12-05T05:38:50.045Z,943.1
2018-12-05T05:39:50.024Z,943.1
2018-12-05T05:40:50.341Z,943
2018-12-05T05:41:50.230Z,943.1
2018-12-05T05:42:50.112Z,943.1
2018-12-05T05:43:49.827Z,943.1
2018-12-05T05:44:49.556Z,943
2018-12-05T05:45:49.315Z,943.1
2018-12-05T05:46:49.023Z,943.1
2018-12-05T05:47:48.757Z,943.1
2018-12-05T05:48:48.467Z,943.1
2018-12-05T05:49:48.188Z,943.1
2018-12-05T05:50:48.497Z,943.1
2018-12-05T05:51:48.398Z,943.1
2018-12-05T05:52:48.278Z,943
2018-12-05T05:53:48.150Z,943
2018-12-05T05:54:48.036Z,943.1
2018-12-05T05:55:47.920Z,943
2018-12-05T05:56:47.851Z,943.1
2018-12-05T05:57:47.760Z,943.1
2018-12-05T05:58:47.658Z,943.1
2018-12-05T05:59:47.584Z,943.1
2018-12-05T06:00:47.917Z,943
2018-12-05T06:01:47.831Z,943.1
2018-12-05T06:02:47.712Z,943.1
2018-12-05T06:03:47.428Z,943
2018-12-05T06:04:47.158Z,943.1
2018-12-05T06:05:46.882Z,943.1
2018-12-05T06:06:46.622Z,943
2018-12-05T06:07:46.354Z,943.2
2018-12-05T06:08:46.069Z,943.1
2018-12-05T06:09:45.814Z,943.2
2018-12-05T06:10:46.095Z,943.2
2018-12-05T06:11:46.000Z,943.1
2018-12-05T06:12:45.905Z,943.2
2018-12-05T06:13:45.788Z,943.2
2018-12-05T06:14:45.676Z,943
2018-12-05T06:15:45.548Z,943.1
2018-12-05T06:16:45.435Z,943.2
2018-12-05T06:17:45.358Z,943.1
2018-12-05T06:18:45.253Z,943.2
2018-12-05T06:19:45.154Z,943.2
2018-12-05T06:20:45.465Z,943.2
2018-12-05T06:21:45.343Z,943.2
2018-12-05T06:22:45.257Z,943.2
2018-12-05T06:23:45.161Z,943.1
2018-12-05T06:24:45.040Z,943.1
2018-12-05T06:25:44.922Z,943.2
2018-12-05T06:26:44.813Z,943
2018-12-05T06:27:44.686Z,943.1
2018-12-05T06:28:44.585Z,943.1
2018-12-05T06:29:44.486Z,943.1
2018-12-05T06:30:44.827Z,943.1
2018-12-05T06:31:44.707Z,943.1
2018-12-05T06:32:44.591Z,943.1
2018-12-05T06:33:44.505Z,943.1
2018-12-05T06:34:44.371Z,941.7
2018-12-05T06:35:44.273Z,943.1
2018-12-05T06:36:44.167Z,943.1
2018-12-05T06:37:44.057Z,943.2
2018-12-05T06:38:43.949Z,943.2
2018-12-05T06:39:43.852Z,943.3
2018-12-05T06:40:44.159Z,943.3
2018-12-05T06:41:44.034Z,943.3
2018-12-05T06:42:43.933Z,943.4
2018-12-05T06:43:43.828Z,943.4
2018-12-05T06:44:43.738Z,943.3
2018-12-05T06:45:43.634Z,943.4
2018-12-05T06:46:43.520Z,943.4
2018-12-05T06:47:43.425Z,943.4
2018-12-05T06:48:43.307Z,943.4
2018-12-05T06:49:43.201Z,943.5
2018-12-05T06:50:43.522Z,943.5
2018-12-05T06:51:43.407Z,943.4
2018-12-05T06:52:43.280Z,943.4
2018-12-05T06:53:43.025Z,943.5
2018-12-05T06:54:42.761Z,943.5
2018-12-05T06:55:42.503Z,943.5
2018-12-05T06:56:42.381Z,943.5
2018-12-05T06:57:42.112Z,943.5
2018-12-05T06:58:41.840Z,943.5
2018-12-05T06:59:41.566Z,943.5
2018-12-05T07:00:41.928Z,943.5
2018-12-05T07:01:41.823Z,943.5
2018-12-05T07:02:41.695Z,943
2018-12-05T07:03:41.592Z,943.6
2018-12-05T07:04:41.479Z,943.6
2018-12-05T07:05:41.371Z,943.6
2018-12-05T07:06:41.273Z,943.6
2018-12-05T07:07:41.160Z,943.6
2018-12-05T07:08:41.053Z,943.6
2018-12-05T07:09:40.947Z,943.6
2018-12-05T07:10:41.291Z,943.6
2018-12-05T07:11:41.192Z,943.6
2018-12-05T07:12:41.078Z,943.5
2018-12-05T07:13:40.978Z,943.6
2018-12-05T07:14:40.867Z,943.6
2018-12-05T07:15:40.762Z,943.6
2018-12-05T07:16:40.662Z,943.6
2018-12-05T07:17:40.561Z,943.7
2018-12-05T07:18:40.462Z,943.6
2018-12-05T07:19:40.346Z,943.7
2018-12-05T07:20:40.653Z,943.7
2018-12-05T07:21:40.557Z,943.7
2018-12-05T07:22:40.458Z,943.7
2018-12-05T07:23:40.359Z,943.7
2018-12-05T07:24:40.241Z,943.7
2018-12-05T07:25:40.150Z,943.7
2018-12-05T07:26:40.033Z,943.7
2018-12-05T07:27:39.945Z,943.7
2018-12-05T07:28:39.829Z,943.7
2018-12-05T07:29:39.730Z,943.6
2018-12-05T07:30:40.063Z,943.8
2018-12-05T07:31:39.953Z,943.8
2018-12-05T07:32:39.881Z,943.8
2018-12-05T07:33:39.788Z,943.7
2018-12-05T07:34:39.667Z,943.8
2018-12-05T07:35:39.625Z,943.8
2018-12-05T07:36:39.509Z,943.8
2018-12-05T07:37:39.390Z,943.8
2018-12-05T07:38:39.309Z,943.8
2018-12-05T07:39:39.195Z,943.8
2018-12-05T07:40:39.533Z,943.8
2018-12-05T07:41:39.428Z,943.8
2018-12-05T07:42:39.328Z,943.8
2018-12-05T07:43:39.237Z,943.9
2018-12-05T07:44:38.967Z,943.9
2018-12-05T07:45:38.685Z,943.8
2018-12-05T07:46:38.416Z,943.9
2018-12-05T07:47:38.135Z,944
2018-12-05T07:48:37.881Z,944
2018-12-05T07:49:37.608Z,943.7
2018-12-05T07:50:37.937Z,944
2018-12-05T07:51:37.658Z,943.8
2018-12-05T07:52:37.546Z,943.9
2018-12-05T07:53:37.271Z,943.9
2018-12-05T07:54:37.021Z,943.9
2018-12-05T07:55:36.753Z,943.8
2018-12-05T07:56:36.480Z,943.9
2018-12-05T07:57:38.218Z,943.8
2018-12-05T07:58:37.942Z,943.9
2018-12-05T07:59:37.669Z,943.7
2018-12-05T08:00:37.989Z,943.9
2018-12-05T08:01:37.907Z,943.8
2018-12-05T08:02:37.789Z,943.7
2018-12-05T08:03:37.678Z,943.8
2018-12-05T08:04:37.567Z,943.8
2018-12-05T08:05:37.548Z,943.8
2018-12-05T08:06:37.445Z,943.8
2018-12-05T08:07:37.345Z,943.8
2018-12-05T08:08:37.233Z,943.8
2018-12-05T08:09:37.123Z,943
2018-12-05T08:10:37.481Z,943.9
2018-12-05T08:11:37.354Z,943.9
2018-12-05T08:12:37.248Z,943.5
2018-12-05T08:13:37.128Z,944
2018-12-05T08:14:37.035Z,943.8
2018-12-05T08:15:36.961Z,943.7
2018-12-05T08:16:36.849Z,943.6
2018-12-05T08:17:36.736Z,943.8
2018-12-05T08:18:36.692Z,943.7
2018-12-05T08:19:36.598Z,943.8
2018-12-05T08:20:36.923Z,943.8
2018-12-05T08:21:36.833Z,943.8
2018-12-05T08:22:36.741Z,943.7
2018-12-05T08:23:36.628Z,943.8
2018-12-05T08:24:36.524Z,943.8
2018-12-05T08:25:36.425Z,943.8
2018-12-05T08:26:36.333Z,943.7
2018-12-05T08:27:36.298Z,943.8
2018-12-05T08:28:36.192Z,943.7
2018-12-05T08:29:36.100Z,943.7
2018-12-05T08:30:36.423Z,943.8
2018-12-05T08:31:36.304Z,943.7
2018-12-05T08:32:36.223Z,943.7
2018-12-05T08:33:36.137Z,943.7
2018-12-05T08:34:36.006Z,943.8
2018-12-05T08:35:35.896Z,943.8
2018-12-05T08:36:35.784Z,943.8
2018-12-05T08:37:36.709Z,943.8
2018-12-05T08:38:36.618Z,943.8
2018-12-05T08:39:36.532Z,943.8
2018-12-05T08:40:36.838Z,943.8
2018-12-05T08:41:36.729Z,942.5
2018-12-05T08:42:36.643Z,943.7
2018-12-05T08:43:36.528Z,943.7
2018-12-05T08:44:36.440Z,943.2
2018-12-05T08:45:36.321Z,943.7
2018-12-05T08:46:36.215Z,943.7
2018-12-05T08:47:36.176Z,943.8
2018-12-05T08:48:36.249Z,943.5
2018-12-05T08:49:36.141Z,943.7
2018-12-05T08:50:36.451Z,943.7
2018-12-05T08:51:36.330Z,943.7
2018-12-05T08:52:36.232Z,943.7
2018-12-05T08:53:36.124Z,943.7
2018-12-05T08:54:36.017Z,943.7
2018-12-05T08:55:35.911Z,943
2018-12-05T08:56:35.782Z,943.6
2018-12-05T08:57:35.704Z,943
2018-12-05T08:58:35.872Z,943.7
2018-12-05T08:59:35.761Z,943.7
2018-12-05T09:00:36.151Z,943.7
2018-12-05T09:01:36.081Z,943.6
2018-12-05T09:02:35.813Z,943.6
2018-12-05T09:03:35.735Z,943.5
2018-12-05T09:04:35.465Z,943.7
2018-12-05T09:05:35.203Z,943.6
2018-12-05T09:06:34.922Z,943.6
2018-12-05T09:07:34.715Z,943.6
2018-12-05T09:08:34.449Z,942.2
2018-12-05T09:09:34.195Z,943.6
2018-12-05T09:10:34.516Z,943.7
2018-12-05T09:11:34.431Z,943.6
2018-12-05T09:12:34.337Z,943.6
2018-12-05T09:13:34.219Z,943.5
2018-12-05T09:14:34.120Z,943.6
2018-12-05T09:15:34.023Z,943.6
2018-12-05T09:16:33.930Z,943.7
2018-12-05T09:17:33.825Z,943.7
2018-12-05T09:18:33.729Z,943.7
2018-12-05T09:19:33.613Z,943.7
2018-12-05T09:20:33.957Z,943.6
2018-12-05T09:21:33.834Z,943.6
2018-12-05T09:22:41.915Z,943.5
2018-12-05T09:23:41.811Z,943.5
2018-12-05T09:24:41.718Z,943.5
2018-12-05T09:25:41.599Z,943.6
2018-12-05T09:26:41.515Z,943.5
2018-12-05T09:27:41.434Z,943.5
2018-12-05T09:28:41.330Z,943.5
2018-12-05T09:29:41.237Z,943.5
2018-12-05T09:30:41.551Z,943.3
2018-12-05T09:31:41.440Z,943.5
2018-12-05T09:32:41.351Z,943.3
2018-12-05T09:33:41.241Z,943.4
2018-12-05T09:34:41.131Z,943.4
2018-12-05T09:35:41.055Z,943.3
2018-12-05T09:36:41.005Z,943.3
2018-12-05T09:37:40.896Z,943.4
2018-12-05T09:38:40.847Z,943.3
2018-12-05T09:39:40.772Z,943.3
2018-12-05T09:40:41.103Z,943.2
2018-12-05T09:41:41.004Z,943.2
2018-12-05T09:42:40.920Z,943.2
2018-12-05T09:43:40.815Z,943.2
2018-12-05T09:44:40.541Z,943.3
2018-12-05T09:45:40.290Z,943.2
2018-12-05T09:46:40.027Z,942.8
2018-12-05T09:47:39.748Z,943.2
2018-12-05T09:48:39.557Z,943.2
2018-12-05T09:49:39.294Z,943.1
2018-12-05T09:50:39.473Z,943.2
2018-12-05T09:51:39.197Z,943.2
2018-12-05T09:52:38.921Z,943.2
2018-12-05T09:53:38.652Z,943.2
2018-12-05T09:54:38.545Z,943.2
2018-12-05T09:55:38.322Z,943.2
2018-12-05T09:56:38.199Z,943.2
2018-12-05T09:57:37.915Z,943.3
2018-12-05T09:58:37.806Z,943.3
2018-12-05T09:59:37.536Z,943.3
2018-12-05T10:00:37.836Z,943.4
2018-12-05T10:01:37.576Z,943.3
2018-12-05T10:02:37.460Z,943.2
2018-12-05T10:03:37.171Z,942.4
2018-12-05T10:04:37.066Z,943.2
2018-12-05T10:05:36.952Z,943.5
2018-12-05T10:06:36.715Z,943.4
2018-12-05T10:07:36.631Z,943.4
2018-12-05T10:08:36.547Z,943.4
2018-12-05T10:09:36.435Z,943.4
2018-12-05T10:10:36.731Z,943.3
2018-12-05T10:11:36.449Z,943.2
2018-12-05T10:12:36.203Z,943.2
2018-12-05T10:13:36.091Z,943.3
2018-12-05T10:14:35.811Z,943.3
2018-12-05T10:15:35.753Z,943.3
2018-12-05T10:16:35.641Z,943.3
2018-12-05T10:17:35.559Z,943.3
2018-12-05T10:18:35.501Z,943.4
2018-12-05T10:19:35.383Z,943.4
2018-12-05T10:20:35.678Z,943.3
2018-12-05T10:21:35.575Z,943.3
2018-12-05T10:22:35.487Z,943.4
2018-12-05T10:23:35.392Z,943.4
2018-12-05T10:24:35.297Z,943.3
2018-12-05T10:25:35.177Z,943.3
2018-12-05T10:26:35.077Z,943.4
2018-12-05T10:27:34.989Z,943.4
2018-12-05T10:28:34.871Z,943.3
2018-12-05T10:29:34.819Z,943.5
2018-12-05T10:30:35.135Z,943.4
2018-12-05T10:31:35.015Z,943.5
2018-12-05T10:32:34.939Z,943.5
2018-12-05T10:33:34.838Z,943.6
2018-12-05T10:34:34.763Z,943.6
2018-12-05T10:35:34.657Z,943.6
2018-12-05T10:36:34.535Z,943.7
2018-12-05T10:37:34.411Z,943.7
2018-12-05T10:38:34.311Z,943.6
2018-12-05T10:39:34.174Z,943.5
2018-12-05T10:40:34.457Z,943.5
2018-12-05T10:41:34.345Z,943.4
2018-12-05T10:42:34.225Z,943.5
2018-12-05T10:43:35.493Z,943.5
2018-12-05T10:44:35.410Z,943.5
2018-12-05T10:45:35.302Z,943.3
2018-12-05T10:46:35.190Z,943.3
2018-12-05T10:47:35.059Z,943.5
2018-12-05T10:48:34.973Z,943.5
2018-12-05T10:49:34.873Z,943.5
2018-12-05T10:50:35.241Z,942.5
2018-12-05T10:51:35.136Z,943.2
2018-12-05T10:52:35.036Z,943.3
2018-12-05T10:53:34.933Z,943.5
2018-12-05T10:54:34.826Z,943.4
2018-12-05T10:55:34.711Z,943.4
2018-12-05T10:56:34.619Z,943.4
2018-12-05T10:57:34.507Z,943.4
2018-12-05T10:58:34.395Z,943.4
2018-12-05T10:59:34.290Z,943.3
2018-12-05T11:00:34.619Z,943.3
2018-12-05T11:01:34.505Z,943.2
2018-12-05T11:02:34.401Z,943.2
2018-12-05T11:03:34.334Z,943.2
2018-12-05T11:04:34.252Z,943.2
2018-12-05T11:05:34.141Z,943.2
2018-12-05T11:06:34.033Z,943.2
2018-12-05T11:07:33.907Z,943
2018-12-05T11:08:33.781Z,943.1
2018-12-05T11:09:33.688Z,943.1
2018-12-05T11:10:33.998Z,943.1
2018-12-05T11:11:33.886Z,943
2018-12-05T11:12:33.778Z,943
2018-12-05T11:13:36.769Z,942.9
2018-12-05T11:14:36.698Z,942.9
2018-12-05T11:15:36.570Z,942.8
2018-12-05T11:16:36.472Z,942.9
2018-12-05T11:17:36.374Z,942.9
2018-12-05T11:18:36.263Z,942.9
2018-12-05T11:19:36.265Z,942.8
2018-12-05T11:20:36.618Z,942.8
2018-12-05T11:21:36.486Z,942.9
2018-12-05T11:22:36.355Z,942.7
2018-12-05T11:23:36.237Z,942.8
2018-12-05T11:24:36.156Z,942.9
2018-12-05T11:25:36.041Z,942.8
2018-12-05T11:26:35.933Z,942.8
2018-12-05T11:27:35.834Z,942.8
2018-12-05T11:28:35.888Z,942.7
2018-12-05T11:29:35.776Z,942.7
2018-12-05T11:30:36.133Z,942.7
2018-12-05T11:31:36.029Z,942.7
2018-12-05T11:32:35.910Z,942.6
2018-12-05T11:33:35.782Z,942.7
2018-12-05T11:34:35.670Z,942.6
2018-12-05T11:35:37.141Z,942.6
2018-12-05T11:36:37.072Z,942.5
2018-12-05T11:37:36.957Z,942.7
2018-12-05T11:38:36.861Z,942.7
2018-12-05T11:39:36.748Z,942.6
2018-12-05T11:40:37.092Z,942.4
2018-12-05T11:41:36.977Z,942.6
2018-12-05T11:42:36.862Z,942.6
2018-12-05T11:43:36.740Z,942.7
2018-12-05T11:44:36.629Z,942.6
2018-12-05T11:45:36.569Z,942.6
2018-12-05T11:46:36.453Z,942.6
2018-12-05T11:47:36.343Z,942.5
2018-12-05T11:48:36.457Z,942.6
2018-12-05T11:49:36.341Z,942.6
2018-12-05T11:50:36.711Z,942.6
2018-12-05T11:51:36.625Z,942.6
2018-12-05T11:52:36.529Z,942.6
2018-12-05T11:53:36.431Z,942.6
2018-12-05T11:54:36.315Z,942.5
2018-12-05T11:55:36.309Z,942.6
2018-12-05T11:56:36.213Z,942.5
2018-12-05T11:57:36.129Z,942.6
2018-12-05T11:58:36.184Z,942.5
2018-12-05T11:59:36.059Z,942.6
2018-12-05T12:00:36.353Z,942.5
2018-12-05T12:01:36.339Z,942.5
2018-12-05T12:02:36.239Z,942.3
2018-12-05T12:03:36.121Z,942.3
2018-12-05T12:04:36.005Z,942.5
2018-12-05T12:05:35.901Z,942.4
2018-12-05T12:06:35.794Z,942.5
2018-12-05T12:07:35.697Z,942.4
2018-12-05T12:08:35.605Z,942.4
2018-12-05T12:09:35.503Z,942.5
2018-12-05T12:10:35.807Z,942.4
2018-12-05T12:11:35.713Z,942.4
2018-12-05T12:12:35.603Z,942.3
2018-12-05T12:13:35.497Z,942.4
2018-12-05T12:14:35.393Z,942.4
2018-12-05T12:15:35.301Z,942.4
2018-12-05T12:16:35.207Z,942.3
2018-12-05T12:17:35.093Z,942.2
2018-12-05T12:18:35.004Z,942.1
2018-12-05T12:19:34.922Z,942.3
2018-12-05T12:20:35.293Z,942.3
2018-12-05T12:21:35.235Z,942.1
2018-12-05T12:22:35.137Z,942.1
2018-12-05T12:23:35.037Z,942.2
2018-12-05T12:24:35.808Z,942.2
2018-12-05T12:25:35.704Z,942.2
2018-12-05T12:26:35.463Z,942
2018-12-05T12:27:35.190Z,942.2
2018-12-05T12:28:34.909Z,942.2
2018-12-05T12:29:34.632Z,942.2
2018-12-05T12:30:34.965Z,942.1
2018-12-05T12:31:34.908Z,942.1
2018-12-05T12:32:34.818Z,942.1
2018-12-05T12:33:34.710Z,942.1
2018-12-05T12:34:34.609Z,942.1
2018-12-05T12:35:34.506Z,942
2018-12-05T12:36:34.410Z,941.8
2018-12-05T12:37:34.324Z,942
2018-12-05T12:38:34.302Z,942
2018-12-05T12:39:34.201Z,942
2018-12-05T12:40:34.522Z,941.9
2018-12-05T12:41:34.440Z,942
2018-12-05T12:42:34.335Z,941.8
2018-12-05T12:43:34.238Z,941.9
2018-12-05T12:44:34.139Z,942
2018-12-05T12:45:33.869Z,941
2018-12-05T12:46:33.801Z,942
2018-12-05T12:47:33.699Z,942
2018-12-05T12:48:33.605Z,942
2018-12-05T12:49:33.524Z,942
2018-12-05T12:50:33.840Z,942
2018-12-05T12:51:33.749Z,942
2018-12-05T12:52:33.625Z,941.9
2018-12-05T12:53:33.535Z,942
2018-12-05T12:54:33.427Z,942
2018-12-05T12:55:33.311Z,941.9
2018-12-05T12:56:33.286Z,941.9
2018-12-05T12:57:33.178Z,942
2018-12-05T12:58:33.089Z,941.8